Terminal Aerodrome Forecast
Issued by NWS

Home | Current Version | Previous Version | Text Only | Print | Product List | Glossary On
Versions: 1 2 3 4 5 6 7 8 9 10 11 12 13 14 15 16 17 18 19 20 21 22 23 24 25 26 27 28 29 30 31 32 33 34 35 36 37 38
000
FTUS43 KDMX 281736
TAFMCW
TAF
KMCW 281736Z 2818/2918 15011KT P6SM BKN110
     FM290600 17005KT 4SM BR SCT006 BKN080
     FM291000 17005KT 3/4SM BR SCT003 BKN080
     FM291400 19008KT 6SM HZ SCT080=

USA.gov is the U.S. government's official web portal to all federal, state and local government web resources and services.